Pagina principale
METAR-TAF:

METAR-TAF

Aeroporti :

Majuro, Isole Marshall

Aeroporto di Majuro

latitudine: 07-04N, longitudine: 171-17E, altezza: 2 m

Osservazione

Il bollettino è stato emesso 45 minuti fa, alle 04:51 UTC
Vento 12 kt da est/nord-est
Temperature 30°C
Umidità 79%
Pressione 1004 hPa
Visibilità: 24.1 km
Poco nuvoloso ad un'altezza di 1500 ft
Nubi sparse ad un'altezza di 5000 ft
Nuvoloso ad un'altezza di 30000 ft

METAR: PKMJ 240451Z 06012KT 15SM FEW015 SCT050 BKN300 30/26 A2965

Ora: 17:36 (05:36 UTC)

Previsione

Il bollettino è stato emesso 16 minuti fa, alle 05:20 UTC
Previsione valida dal 24 alle 06 UTC al 25 alle 06 UTC
Vento 14 kt da est
Visibilità: 10 km
Poco nuvoloso ad un'altezza di 1600 ft
Nubi sparse ad un'altezza di 4000 ft
Nuvoloso ad un'altezza di 12000 ft
rovesci nelle vicinanze

TAF: PKMJ 240520Z 2406/2506 09014KT P6SM VCSH FEW016 SCT040 BKN120

Osservazioni e previsioni meteorologiche di più di 4000 aeroporti (messaggi METAR e TAF).

Le stazioni disponibili sono rappresentate dai dischi gialli e rossi sulla carta.

Puntare il mouse per vedere il nome della stazione.

Clicca sopra per visualizzare le osservazioni e previsioni meteorologiche.

Per cambiare la mappa : fare clic sui pulsanti verdi con una croce nera per ingrandire, il pulsante verde con un trattino per diminuire, o sulla freccia verde per le mappe adiacenti.


METAR-TAF: